SWR784 LOWI-LSZH

Flight info

Callsign SWR784
Flight time 0h 38m
Altitude 16000
Route MOGTI P66 KPT L856 NEGRA
Aircraft A320/M-SDE3FGHIRWY/LB1

Departure

Time 2026-05-08 06:48
Airport Innsbruck Airport (LOWI)

Arrival

Time 2026-05-08 07:27
Airport Zürich Airport (LSZH)
Time Latitude Longitude Altitude Speed Heading
2026-05-08 06:16 47.25801 11.34872 1908 ft 0 kts 171°
2026-05-08 06:40 47.25802 11.34872 1908 ft 2 kts 171°
2026-05-08 06:40 47.25827 11.34864 1893 ft 4 kts 157°
2026-05-08 06:40 47.25849 11.34844 1896 ft 4 kts 121°
2026-05-08 06:40 47.25853 11.34820 1899 ft 1 kts 81°
2026-05-08 06:41 47.25853 11.34815 1898 ft 0 kts 81°
2026-05-08 06:43 47.25853 11.34817 1899 ft 2 kts 81°
2026-05-08 06:43 47.25858 11.34866 1901 ft 8 kts 82°
2026-05-08 06:44 47.25870 11.34978 1901 ft 14 kts 81°
2026-05-08 06:44 47.25888 11.35149 1904 ft 18 kts 80°
2026-05-08 06:44 47.25924 11.35282 1907 ft 13 kts 19°
2026-05-08 06:44 47.26007 11.35272 1905 ft 13 kts 351°
2026-05-08 06:45 47.26082 11.35255 1899 ft 2 kts 352°
2026-05-08 06:45 47.26108 11.35259 1905 ft 6 kts 11°
2026-05-08 06:45 47.26122 11.35327 1904 ft 10 kts 85°
2026-05-08 06:45 47.26132 11.35465 1901 ft 17 kts 81°
2026-05-08 06:46 47.26147 11.35611 1902 ft 10 kts 94°
2026-05-08 06:46 47.26109 11.35668 1891 ft 10 kts 101°
2026-05-08 06:46 47.26131 11.35734 1890 ft 3 kts 24°
2026-05-08 06:46 47.26166 11.35727 1894 ft 7 kts 323°
2026-05-08 06:47 47.26155 11.35649 1893 ft 10 kts 257°
2026-05-08 06:47 47.26153 11.35626 1902 ft 0 kts 261°
2026-05-08 06:47 47.26152 11.35623 1902 ft 4 kts 261°
2026-05-08 06:48 47.26107 11.35213 1900 ft 79 kts 261°
2026-05-08 06:48 47.25986 11.34080 1912 ft 142 kts 261°
2026-05-08 06:48 47.25816 11.32493 2289 ft 164 kts 261°
2026-05-08 06:48 47.25647 11.30790 2925 ft 175 kts 262°
2026-05-08 06:49 47.25493 11.28977 3659 ft 181 kts 262°
2026-05-08 06:49 47.25333 11.27115 4339 ft 188 kts 268°
2026-05-08 06:49 47.25624 11.25202 4783 ft 199 kts 298°
2026-05-08 06:49 47.26345 11.23467 5262 ft 203 kts 298°
2026-05-08 06:50 47.26999 11.21448 5487 ft 226 kts 292°
2026-05-08 06:50 47.27621 11.19214 5913 ft 247 kts 291°
2026-05-08 06:50 47.28279 11.16784 6439 ft 268 kts 291°
2026-05-08 06:50 47.28996 11.14167 7239 ft 275 kts 291°
2026-05-08 06:51 47.29721 11.11593 8143 ft 277 kts 292°
2026-05-08 06:51 47.29966 11.10706 8464 ft 277 kts 290°
2026-05-08 06:51 47.30340 11.08771 9182 ft 276 kts 281°
2026-05-08 06:51 47.30485 11.05932 10036 ft 280 kts 267°
2026-05-08 06:52 47.30362 11.02975 10470 ft 300 kts 266°
2026-05-08 06:52 47.30231 10.99784 10745 ft 323 kts 266°
2026-05-08 06:52 47.30098 10.96410 11296 ft 334 kts 267°
2026-05-08 06:52 47.29969 10.92966 12037 ft 338 kts 267°
2026-05-08 06:53 47.29903 10.89484 12790 ft 342 kts 273°
2026-05-08 06:53 47.30311 10.86013 13532 ft 346 kts 287°
2026-05-08 06:53 47.31258 10.82781 14228 ft 351 kts 300°
2026-05-08 06:53 47.32735 10.79901 14887 ft 356 kts 313°
2026-05-08 06:54 47.34577 10.77426 15555 ft 360 kts 317°
2026-05-08 06:54 47.36454 10.74955 15957 ft 362 kts 316°
2026-05-08 06:54 47.38185 10.72264 16056 ft 360 kts 306°
2026-05-08 06:54 47.39523 10.69147 16080 ft 359 kts 295°
2026-05-08 06:55 47.40535 10.65675 14999 ft 375 kts 287°
2026-05-08 06:55 47.41357 10.62111 15004 ft 360 kts 289°
2026-05-08 06:55 47.42246 10.58658 15511 ft 360 kts 291°
2026-05-08 06:55 47.43175 10.55216 15928 ft 360 kts 291°
2026-05-08 06:56 47.44099 10.51837 16050 ft 359 kts 291°
2026-05-08 06:56 47.45033 10.48410 16067 ft 359 kts 291°
2026-05-08 06:56 47.45959 10.44977 16080 ft 359 kts 291°
2026-05-08 06:56 47.46870 10.41546 16075 ft 358 kts 290°
2026-05-08 06:57 47.47769 10.38116 16064 ft 358 kts 290°
2026-05-08 06:57 47.48669 10.34667 16069 ft 359 kts 290°
2026-05-08 06:57 47.49551 10.31271 16067 ft 358 kts 290°
2026-05-08 06:57 47.50443 10.27833 16062 ft 358 kts 290°
2026-05-08 06:58 47.51331 10.24409 16070 ft 358 kts 290°
2026-05-08 06:58 47.52222 10.20986 16066 ft 358 kts 290°
2026-05-08 06:58 47.53107 10.17592 16060 ft 358 kts 290°
2026-05-08 06:58 47.54003 10.14157 16064 ft 358 kts 290°
2026-05-08 06:59 47.54895 10.10719 16061 ft 358 kts 290°
2026-05-08 06:59 47.55785 10.07278 16058 ft 358 kts 290°
2026-05-08 06:59 47.56673 10.03831 16066 ft 358 kts 290°
2026-05-08 06:59 47.57558 10.00385 16067 ft 358 kts 290°
2026-05-08 07:00 47.58443 9.96940 16077 ft 358 kts 290°
2026-05-08 07:00 47.59330 9.93492 16072 ft 358 kts 290°
2026-05-08 07:00 47.60218 9.90049 16071 ft 358 kts 290°
2026-05-08 07:00 47.61104 9.86593 16074 ft 358 kts 290°
2026-05-08 07:01 47.61989 9.83134 16076 ft 358 kts 290°
2026-05-08 07:01 47.62870 9.79681 16075 ft 358 kts 290°
2026-05-08 07:01 47.63745 9.76250 16077 ft 358 kts 290°
2026-05-08 07:01 47.64631 9.72765 16084 ft 358 kts 290°
2026-05-08 07:02 47.65498 9.69351 16090 ft 358 kts 290°
2026-05-08 07:02 47.66091 9.67018 16086 ft 358 kts 290°
2026-05-08 07:02 47.66969 9.63559 16087 ft 358 kts 290°
2026-05-08 07:02 47.68130 9.58963 16089 ft 358 kts 290°
2026-05-08 07:03 47.68719 9.56622 16087 ft 358 kts 290°
2026-05-08 07:03 47.69595 9.53151 16084 ft 358 kts 290°
2026-05-08 07:03 47.70362 9.49691 16093 ft 358 kts 282°
2026-05-08 07:03 47.70680 9.46033 16087 ft 357 kts 271°
2026-05-08 07:04 47.70515 9.42353 16086 ft 357 kts 259°
2026-05-08 07:04 47.69782 9.38856 15878 ft 352 kts 245°
2026-05-08 07:04 47.68472 9.35798 15621 ft 351 kts 232°
2026-05-08 07:04 47.66929 9.33023 15386 ft 350 kts 231°
2026-05-08 07:05 47.65378 9.30237 15136 ft 349 kts 231°
2026-05-08 07:05 47.63831 9.27452 14888 ft 348 kts 231°
2026-05-08 07:05 47.62315 9.24708 14648 ft 347 kts 232°
2026-05-08 07:05 47.60803 9.21919 14407 ft 346 kts 235°
2026-05-08 07:06 47.59600 9.18844 14168 ft 344 kts 247°
2026-05-08 07:06 47.58852 9.15500 13925 ft 342 kts 258°
2026-05-08 07:06 47.58422 9.12059 13528 ft 337 kts 260°
2026-05-08 07:06 47.58003 9.08650 13041 ft 335 kts 260°
2026-05-08 07:07 47.57592 9.05271 12566 ft 332 kts 262°
2026-05-08 07:07 47.57477 9.01860 11993 ft 332 kts 272°
2026-05-08 07:07 47.57642 8.98446 11464 ft 331 kts 274°
2026-05-08 07:07 47.57795 8.95303 10972 ft 330 kts 273°
2026-05-08 07:08 47.57957 8.91881 10500 ft 327 kts 273°
2026-05-08 07:08 47.58110 8.88633 10372 ft 313 kts 273°
2026-05-08 07:08 47.58258 8.85478 10248 ft 301 kts 273°
2026-05-08 07:08 47.58400 8.82437 10129 ft 290 kts 273°
2026-05-08 07:09 47.58536 8.79508 9988 ft 280 kts 273°
2026-05-08 07:09 47.58669 8.76641 9541 ft 281 kts 273°
2026-05-08 07:09 47.58800 8.73754 9226 ft 277 kts 272°
2026-05-08 07:09 47.58928 8.70915 8824 ft 276 kts 273°
2026-05-08 07:10 47.59054 8.68074 8404 ft 276 kts 272°
2026-05-08 07:10 47.59178 8.65241 8008 ft 275 kts 272°
2026-05-08 07:10 47.59302 8.62412 7592 ft 275 kts 272°
2026-05-08 07:10 47.59425 8.59603 7189 ft 274 kts 273°
2026-05-08 07:11 47.59547 8.56778 6632 ft 279 kts 273°
2026-05-08 07:11 47.59673 8.53852 5866 ft 290 kts 273°
2026-05-08 07:11 47.59804 8.50816 5179 ft 298 kts 273°
2026-05-08 07:11 47.59936 8.47794 4939 ft 288 kts 272°
2026-05-08 07:12 47.59714 8.44998 4974 ft 260 kts 245°
2026-05-08 07:12 47.58631 8.43057 4768 ft 240 kts 209°
2026-05-08 07:12 47.57080 8.42528 4305 ft 235 kts 172°
2026-05-08 07:12 47.55600 8.43425 4018 ft 226 kts 142°
2026-05-08 07:13 47.54512 8.44952 3991 ft 202 kts 135°
2026-05-08 07:13 47.53664 8.46144 3998 ft 183 kts 137°
2026-05-08 07:13 47.52753 8.47392 3917 ft 173 kts 136°
2026-05-08 07:13 47.51894 8.48607 3832 ft 168 kts 136°
2026-05-08 07:14 47.51099 8.49799 3588 ft 161 kts 135°
2026-05-08 07:14 47.50292 8.50908 3412 ft 157 kts 136°
2026-05-08 07:14 47.49491 8.51998 3270 ft 156 kts 136°
2026-05-08 07:14 47.48693 8.53119 3032 ft 161 kts 134°
2026-05-08 07:15 47.47861 8.54260 2776 ft 165 kts 137°
2026-05-08 07:15 47.46980 8.55365 2518 ft 167 kts 137°
2026-05-08 07:15 47.46177 8.56552 2298 ft 164 kts 129°
2026-05-08 07:15 47.45389 8.57734 2110 ft 159 kts 137°
2026-05-08 07:16 47.44578 8.58791 2105 ft 153 kts 138°
2026-05-08 07:16 47.43781 8.59824 2105 ft 157 kts 138°
2026-05-08 07:16 47.42850 8.61108 2332 ft 204 kts 131°
2026-05-08 07:16 47.41844 8.62630 2966 ft 213 kts 133°
2026-05-08 07:17 47.41182 8.64579 3613 ft 220 kts 94°
2026-05-08 07:17 47.41577 8.66743 4401 ft 225 kts 52°
2026-05-08 07:17 47.42861 8.68034 5188 ft 230 kts 11°
2026-05-08 07:17 47.44466 8.67952 5808 ft 235 kts 345°
2026-05-08 07:18 47.46003 8.67253 5971 ft 233 kts 339°
2026-05-08 07:18 47.47527 8.66439 6004 ft 233 kts 339°
2026-05-08 07:18 47.49063 8.65685 6008 ft 232 kts 341°
2026-05-08 07:18 47.50687 8.64955 6016 ft 260 kts 342°
2026-05-08 07:19 47.52465 8.64144 6009 ft 272 kts 342°
2026-05-08 07:19 47.54289 8.63328 6007 ft 275 kts 345°
2026-05-08 07:19 47.56192 8.63188 6010 ft 276 kts
2026-05-08 07:19 47.57996 8.64176 6012 ft 278 kts 27°
2026-05-08 07:20 47.59786 8.65179 6008 ft 276 kts
2026-05-08 07:20 47.61643 8.64677 6008 ft 273 kts 330°
2026-05-08 07:20 47.63063 8.62899 6005 ft 270 kts 307°
2026-05-08 07:20 47.63997 8.60504 6007 ft 266 kts 289°
2026-05-08 07:21 47.64348 8.57968 6000 ft 238 kts 269°
2026-05-08 07:21 47.64158 8.55645 5646 ft 227 kts 254°
2026-05-08 07:21 47.63718 8.53321 4878 ft 240 kts 252°
2026-05-08 07:21 47.63242 8.50931 4294 ft 242 kts 252°
2026-05-08 07:22 47.62774 8.48598 4095 ft 228 kts 252°
2026-05-08 07:22 47.62338 8.46419 3998 ft 212 kts 252°
2026-05-08 07:22 47.61933 8.44386 4001 ft 201 kts 252°
2026-05-08 07:22 47.61540 8.42421 4006 ft 197 kts 251°
2026-05-08 07:23 47.60879 8.40714 4032 ft 193 kts 222°
2026-05-08 07:23 47.59712 8.39801 4021 ft 191 kts 189°
2026-05-08 07:23 47.58411 8.39962 4010 ft 191 kts 158°
2026-05-08 07:23 47.57328 8.41078 3863 ft 191 kts 137°
2026-05-08 07:24 47.56360 8.42424 3633 ft 191 kts 136°
2026-05-08 07:24 47.55392 8.43764 3389 ft 190 kts 136°
2026-05-08 07:24 47.54428 8.45089 3140 ft 182 kts 136°
2026-05-08 07:24 47.53539 8.46308 2903 ft 167 kts 136°
2026-05-08 07:25 47.52716 8.47435 2689 ft 157 kts 135°
2026-05-08 07:25 47.51924 8.48519 2490 ft 155 kts 136°
2026-05-08 07:25 47.50346 8.50670 2071 ft 154 kts 136°
2026-05-08 07:26 47.49561 8.51759 1875 ft 155 kts 135°
2026-05-08 07:26 47.48781 8.52830 1609 ft 154 kts 136°
2026-05-08 07:26 47.47990 8.53903 1417 ft 153 kts 136°
2026-05-08 07:26 47.47237 8.54934 1406 ft 136 kts 136°
2026-05-08 07:27 47.46663 8.55724 1403 ft 90 kts 136°
2026-05-08 07:27 47.46325 8.56179 1399 ft 44 kts 138°
2026-05-08 07:27 47.46147 8.56348 1398 ft 25 kts 171°
2026-05-08 07:27 47.46030 8.56327 1405 ft 13 kts 186°
2026-05-08 07:28 47.45928 8.56313 1403 ft 11 kts 185°
2026-05-08 07:28 47.45838 8.56299 1404 ft 14 kts 188°
2026-05-08 07:28 47.45797 8.56291 1403 ft 0 kts 187°
2026-05-08 07:29 47.45763 8.56284 1401 ft 9 kts 187°
2026-05-08 07:30 47.45677 8.56271 1397 ft 16 kts 184°
2026-05-08 07:30 47.45615 8.56175 1401 ft 17 kts 274°
2026-05-08 07:30 47.45630 8.55979 1397 ft 22 kts 276°
2026-05-08 07:30 47.45646 8.55736 1404 ft 25 kts 276°
2026-05-08 07:31 47.45662 8.55504 1404 ft 16 kts 276°
2026-05-08 07:31 47.45665 8.55368 1397 ft 12 kts 245°
2026-05-08 07:31 47.45589 8.55361 1407 ft 12 kts 156°
2026-05-08 07:31 47.45502 8.55422 1400 ft 17 kts 154°
2026-05-08 07:32 47.45382 8.55508 1399 ft 22 kts 154°
2026-05-08 07:32 47.45284 8.55583 1400 ft 11 kts 134°
2026-05-08 07:32 47.45267 8.55694 1397 ft 9 kts 96°
2026-05-08 07:32 47.45285 8.55743 1400 ft 6 kts 12°
2026-05-08 07:33 47.45338 8.55753 1402 ft 6 kts
2026-05-08 07:33 47.45346 8.55754 1405 ft 0 kts
2026-05-08 07:33 47.45347 8.55754 1405 ft 0 kts